createdAt,value
2023-03-15T00:00:57.085Z,5.11
2023-03-15T00:02:02.299Z,5.10
2023-03-15T00:03:07.849Z,5.01
2023-03-15T00:04:13.028Z,5.03
2023-03-15T00:05:17.196Z,5.09
2023-03-15T00:06:20.665Z,5.11
2023-03-15T00:07:26.608Z,5.01
2023-03-15T00:08:31.527Z,5.08
2023-03-15T00:09:34.954Z,5.07
2023-03-15T00:10:45.458Z,5.05
2023-03-15T00:11:49.796Z,5.07
2023-03-15T00:12:53.160Z,5.10
2023-03-15T00:13:56.406Z,5.14
2023-03-15T00:14:59.690Z,5.11
2023-03-15T00:16:05.233Z,5.02
2023-03-15T00:17:09.165Z,5.01
2023-03-15T00:18:16.351Z,5.00
2023-03-15T00:19:19.481Z,4.88
2023-03-15T00:20:21.745Z,4.94
2023-03-15T00:21:23.940Z,4.98
2023-03-15T00:22:27.659Z,4.91
2023-03-15T00:23:33.916Z,4.99
2023-03-15T00:24:38.135Z,5.05
2023-03-15T00:25:43.465Z,4.92
2023-03-15T00:26:45.953Z,4.93
2023-03-15T00:27:49.574Z,4.94
2023-03-15T00:28:56.202Z,4.97
2023-03-15T00:29:59.409Z,4.95
2023-03-15T00:31:08.091Z,4.96
2023-03-15T00:32:12.264Z,4.98
2023-03-15T00:33:16.708Z,5.15
2023-03-15T00:34:22.142Z,5.43
2023-03-15T00:35:25.498Z,5.64
2023-03-15T00:36:29.311Z,5.64
2023-03-15T00:37:33.234Z,5.55
2023-03-15T00:38:38.543Z,5.60
2023-03-15T00:39:43.999Z,5.58
2023-03-15T00:40:48.051Z,5.62
2023-03-15T00:41:51.633Z,5.59
2023-03-15T00:42:54.614Z,5.56
2023-03-15T00:43:57.888Z,5.30
2023-03-15T00:45:03.090Z,5.09
2023-03-15T00:46:06.024Z,4.90
2023-03-15T00:47:10.679Z,4.81
2023-03-15T00:48:14.552Z,4.85
2023-03-15T00:49:18.049Z,4.85
2023-03-15T00:50:22.491Z,4.86
2023-03-15T00:51:25.803Z,4.75
2023-03-15T00:52:31.759Z,4.71
2023-03-15T00:53:37.403Z,4.61
2023-03-15T00:54:41.738Z,4.52
2023-03-15T00:55:44.623Z,4.52
2023-03-15T00:56:49.617Z,4.57
2023-03-15T00:57:52.976Z,4.62
2023-03-15T00:58:57.957Z,4.50
2023-03-15T01:00:03.030Z,4.54
2023-03-15T01:01:09.431Z,4.53
2023-03-15T01:02:15.786Z,4.52
2023-03-15T01:03:19.601Z,4.53
2023-03-15T01:04:22.051Z,4.47
2023-03-15T01:05:29.564Z,4.37
2023-03-15T01:06:32.854Z,4.42
2023-03-15T01:07:36.646Z,4.46
2023-03-15T01:08:42.874Z,4.46
2023-03-15T01:09:49.293Z,4.50
2023-03-15T01:10:52.910Z,4.49
2023-03-15T01:11:56.622Z,4.56
2023-03-15T01:13:00.231Z,4.51
2023-03-15T01:14:06.792Z,4.53
2023-03-15T01:15:13.501Z,4.52
2023-03-15T01:16:19.704Z,4.46
2023-03-15T01:17:24.366Z,4.40
2023-03-15T01:18:31.635Z,4.35
2023-03-15T01:19:33.932Z,4.45
2023-03-15T01:20:37.087Z,4.43
2023-03-15T01:21:41.528Z,4.38
2023-03-15T01:22:45.448Z,4.42
2023-03-15T01:23:50.222Z,4.48
2023-03-15T01:24:56.354Z,4.47
2023-03-15T01:26:07.497Z,4.48
2023-03-15T01:27:11.998Z,4.47
2023-03-15T01:28:16.134Z,4.31
2023-03-15T01:29:19.756Z,4.31
2023-03-15T01:30:22.323Z,4.35
2023-03-15T01:31:29.024Z,4.36
2023-03-15T01:32:32.818Z,4.29
2023-03-15T01:33:39.201Z,4.34
2023-03-15T01:34:43.840Z,4.40
2023-03-15T01:35:47.365Z,4.41
2023-03-15T01:36:52.986Z,4.36
2023-03-15T01:37:57.951Z,4.37
2023-03-15T01:39:01.637Z,4.35
2023-03-15T01:40:14.893Z,4.43
2023-03-15T01:41:20.882Z,4.44
2023-03-15T01:42:24.136Z,4.40
2023-03-15T01:43:29.750Z,4.43
2023-03-15T01:44:55.816Z,4.37
2023-03-15T01:46:13.147Z,4.38
2023-03-15T01:47:19.555Z,4.30
2023-03-15T01:48:26.291Z,4.33
2023-03-15T01:49:31.799Z,4.28
2023-03-15T01:50:35.284Z,4.23
2023-03-15T01:51:48.282Z,4.23
2023-03-15T02:17:59.892Z,3.78
2023-03-15T02:19:10.392Z,3.85
2023-03-15T02:20:19.062Z,3.85
2023-03-15T02:21:23.196Z,3.84
2023-03-15T02:22:29.231Z,3.86
2023-03-15T02:23:32.439Z,3.87
2023-03-15T02:24:49.420Z,3.87
2023-03-15T02:26:02.591Z,3.80
2023-03-15T02:27:06.634Z,3.81
2023-03-15T02:28:10.760Z,3.76
2023-03-15T02:29:14.249Z,3.72
2023-03-15T02:30:17.975Z,3.73
2023-03-15T02:31:23.318Z,3.70
2023-03-15T02:32:26.774Z,3.71
2023-03-15T02:33:34.542Z,3.68
2023-03-15T02:34:38.370Z,3.68
2023-03-15T02:35:41.884Z,3.70
2023-03-15T02:36:45.481Z,3.75
2023-03-15T02:37:49.828Z,3.71
2023-03-15T02:38:53.325Z,3.64
2023-03-15T02:39:57.151Z,3.75
2023-03-15T02:41:00.021Z,3.73
2023-03-15T02:42:03.004Z,3.69
2023-03-15T02:43:09.408Z,3.74
2023-03-15T02:44:22.585Z,3.70
2023-03-15T02:45:28.388Z,3.64
2023-03-15T02:46:33.766Z,3.74
2023-03-15T02:47:37.168Z,3.74
2023-03-15T02:48:42.733Z,3.70
2023-03-15T02:49:48.120Z,3.60
2023-03-15T02:50:51.433Z,3.62
2023-03-15T02:51:55.118Z,3.59
2023-03-15T02:53:00.189Z,3.52
2023-03-15T02:54:06.509Z,3.43
2023-03-15T02:55:09.441Z,3.45
2023-03-15T02:56:12.379Z,3.50
2023-03-15T02:57:19.483Z,3.50
2023-03-15T02:58:24.833Z,3.48
2023-03-15T02:59:28.198Z,3.52
2023-03-15T03:00:30.910Z,3.52
2023-03-15T03:01:37.285Z,3.52
2023-03-15T03:02:42.843Z,3.56
2023-03-15T03:03:50.852Z,3.47
2023-03-15T03:04:57.115Z,3.40
2023-03-15T03:05:59.811Z,3.40
2023-03-15T03:07:03.538Z,3.40
2023-03-15T03:08:07.645Z,3.43
2023-03-15T03:09:13.033Z,3.40
2023-03-15T03:10:18.415Z,3.39
2023-03-15T03:11:22.661Z,3.30
2023-03-15T03:12:25.648Z,3.32
2023-03-15T03:13:29.255Z,3.30
2023-03-15T03:14:37.278Z,3.16
2023-03-15T03:15:41.281Z,3.17
2023-03-15T03:16:44.913Z,3.17
2023-03-15T03:17:49.133Z,3.21
2023-03-15T03:18:54.340Z,3.19
2023-03-15T03:19:58.457Z,3.20
2023-03-15T03:21:05.275Z,3.21
2023-03-15T03:22:08.768Z,3.11
2023-03-15T03:23:14.676Z,3.09
2023-03-15T03:24:20.810Z,3.00
2023-03-15T03:25:25.041Z,3.08
2023-03-15T03:26:32.378Z,3.11
2023-03-15T03:27:37.386Z,3.10
2023-03-15T03:28:41.392Z,3.08
2023-03-15T03:29:43.757Z,3.07
2023-03-15T03:30:47.722Z,3.08
2023-03-15T03:31:51.065Z,3.09
2023-03-15T03:32:58.526Z,3.08
2023-03-15T03:34:02.266Z,3.06
2023-03-15T03:35:09.303Z,3.06
2023-03-15T03:36:16.288Z,3.08
2023-03-15T03:37:19.483Z,3.09
2023-03-15T03:38:32.404Z,3.09
2023-03-15T03:39:37.014Z,3.09
2023-03-15T03:40:40.347Z,3.13
2023-03-15T03:41:45.183Z,3.16
2023-03-15T03:42:47.960Z,3.14
2023-03-15T03:43:53.504Z,3.10
2023-03-15T03:44:58.732Z,3.08
2023-03-15T03:46:04.399Z,3.10
2023-03-15T03:47:08.568Z,3.12
2023-03-15T03:49:15.975Z,3.11
2023-03-15T03:50:19.493Z,3.08
2023-03-15T03:51:23.935Z,3.02
2023-03-15T03:52:27.571Z,3.04
2023-03-15T03:53:31.882Z,3.03
2023-03-15T03:54:36.422Z,2.99
2023-03-15T03:55:38.882Z,3.00
2023-03-15T03:56:42.815Z,3.02
2023-03-15T03:57:46.448Z,3.05
2023-03-15T03:58:50.664Z,3.03
2023-03-15T03:59:56.049Z,3.04
2023-03-15T04:01:00.170Z,3.03
2023-03-15T04:02:04.001Z,3.08
2023-03-15T04:03:08.748Z,3.06
2023-03-15T04:04:17.620Z,3.10
2023-03-15T04:05:22.359Z,3.08
2023-03-15T04:06:25.471Z,3.12
2023-03-15T04:07:29.676Z,3.15
2023-03-15T04:08:33.057Z,3.14
2023-03-15T04:09:37.581Z,3.16
2023-03-15T04:10:42.722Z,3.07
2023-03-15T04:11:45.672Z,3.13
2023-03-15T04:12:51.045Z,3.00
2023-03-15T04:13:57.370Z,3.00
2023-03-15T04:15:00.782Z,3.08
2023-03-15T04:16:07.674Z,3.13
2023-03-15T04:17:14.067Z,3.15
2023-03-15T04:18:20.683Z,3.09
2023-03-15T04:19:24.192Z,3.07
2023-03-15T04:20:28.855Z,2.86
2023-03-15T04:21:32.674Z,2.99
2023-03-15T04:22:39.551Z,3.00
2023-03-15T04:23:44.582Z,3.08
2023-03-15T04:24:51.245Z,3.16
2023-03-15T04:26:11.297Z,3.20
2023-03-15T04:27:22.255Z,3.22
2023-03-15T04:28:37.372Z,3.21
2023-03-15T04:29:45.452Z,3.23
2023-03-15T04:31:07.859Z,3.22
2023-03-15T04:32:19.111Z,3.35
2023-03-15T04:33:26.692Z,3.15
2023-03-15T04:34:33.921Z,3.11
2023-03-15T04:35:43.114Z,3.11
2023-03-15T04:36:54.653Z,3.09
2023-03-15T04:38:11.636Z,3.09
2023-03-15T04:39:25.887Z,3.15
2023-03-15T04:40:46.447Z,3.08
2023-03-15T04:41:51.917Z,3.14
2023-03-15T04:44:17.205Z,3.32
2023-03-15T04:45:25.726Z,3.26
2023-03-15T04:46:35.253Z,3.31
2023-03-15T04:47:44.321Z,3.43
2023-03-15T04:49:07.973Z,3.99
2023-03-15T04:50:12.953Z,5.32
2023-03-15T04:51:26.126Z,6.36
2023-03-15T04:52:31.666Z,6.97
2023-03-15T04:53:53.662Z,7.41
2023-03-15T04:55:04.579Z,8.43
2023-03-15T04:56:10.530Z,9.20
2023-03-15T04:57:17.859Z,9.74
2023-03-15T04:58:25.669Z,10.33
2023-03-15T04:59:42.832Z,10.64
2023-03-15T05:01:04.531Z,10.41
2023-03-15T05:02:26.276Z,10.64
2023-03-15T05:03:40.765Z,11.28
2023-03-15T05:04:57.244Z,11.30
2023-03-15T05:06:19.725Z,10.92
2023-03-15T05:07:41.626Z,10.93
2023-03-15T05:08:55.901Z,10.48
2023-03-15T05:10:02.004Z,9.73
2023-03-15T05:11:24.940Z,9.55
2023-03-15T05:12:33.638Z,9.50
2023-03-15T05:13:51.570Z,9.17
2023-03-15T05:15:02.922Z,9.60
2023-03-15T05:16:11.157Z,9.27
2023-03-15T05:17:25.921Z,9.41
2023-03-15T05:18:37.988Z,9.07
2023-03-15T05:19:45.774Z,9.11
2023-03-15T05:21:08.492Z,9.15
2023-03-15T05:22:20.037Z,9.03
2023-03-15T05:23:25.738Z,9.57
2023-03-15T05:24:34.704Z,9.98
2023-03-15T05:25:55.830Z,10.92
2023-03-15T05:27:18.136Z,11.07
2023-03-15T05:28:23.136Z,11.38
2023-03-15T05:29:28.699Z,11.51
2023-03-15T05:30:36.814Z,11.51
2023-03-15T05:31:42.122Z,11.15
2023-03-15T05:33:07.205Z,10.24
2023-03-15T05:34:28.918Z,9.46
2023-03-15T05:35:46.220Z,8.89
2023-03-15T05:37:00.225Z,8.36
2023-03-15T05:38:17.353Z,7.74
2023-03-15T05:39:28.652Z,7.27
2023-03-15T05:40:48.973Z,7.28
2023-03-15T05:42:12.207Z,7.84
2023-03-15T05:43:29.615Z,8.47
2023-03-15T05:44:34.884Z,9.21
2023-03-15T05:45:39.168Z,9.74
2023-03-15T05:46:47.963Z,10.05
2023-03-15T05:47:53.339Z,10.39
2023-03-15T05:49:06.139Z,10.79
2023-03-15T05:50:19.177Z,10.90
2023-03-15T05:51:25.264Z,10.71
2023-03-15T05:52:39.040Z,11.02
2023-03-15T05:53:47.548Z,11.54
2023-03-15T05:55:02.842Z,12.02
2023-03-15T05:56:14.705Z,12.82
2023-03-15T05:57:37.816Z,13.03
2023-03-15T05:59:01.206Z,14.25
2023-03-15T06:00:07.594Z,13.52
2023-03-15T06:01:22.111Z,12.93
2023-03-15T06:02:43.936Z,12.45
2023-03-15T06:04:06.817Z,12.52
2023-03-15T06:05:14.195Z,12.17
2023-03-15T06:06:17.690Z,12.49
2023-03-15T06:07:20.770Z,12.45
2023-03-15T06:08:24.588Z,12.59
2023-03-15T06:09:28.020Z,13.26
2023-03-15T06:10:32.748Z,13.46
2023-03-15T06:11:37.930Z,14.15
2023-03-15T06:12:41.312Z,13.84
2023-03-15T06:14:52.200Z,12.88
2023-03-15T06:15:56.854Z,12.31
2023-03-15T06:17:03.369Z,11.95
2023-03-15T06:18:07.310Z,12.49
2023-03-15T06:19:10.572Z,12.83
2023-03-15T06:20:16.606Z,13.16
2023-03-15T06:21:21.794Z,13.60
2023-03-15T06:22:25.120Z,13.49
2023-03-15T06:23:29.425Z,14.00
2023-03-15T06:24:33.039Z,14.91
2023-03-15T06:25:36.652Z,16.57
2023-03-15T06:26:39.476Z,17.04
2023-03-15T06:27:43.033Z,15.63
2023-03-15T06:28:45.596Z,14.14
2023-03-15T06:29:50.790Z,13.40
2023-03-15T06:30:54.404Z,12.81
2023-03-15T06:31:59.860Z,12.71
2023-03-15T06:33:03.744Z,12.40
2023-03-15T06:34:07.404Z,12.18
2023-03-15T06:35:10.587Z,11.90
2023-03-15T06:36:15.040Z,11.66
2023-03-15T06:37:29.149Z,11.42
2023-03-15T06:38:26.650Z,11.11
2023-03-15T06:39:29.320Z,11.02
2023-03-15T06:40:32.712Z,11.06
2023-03-15T06:41:37.776Z,11.83
2023-03-15T06:42:43.066Z,12.67
2023-03-15T06:43:47.986Z,12.44
2023-03-15T06:44:56.504Z,11.83
2023-03-15T06:46:00.641Z,11.32
2023-03-15T06:47:04.198Z,11.30
2023-03-15T06:48:06.639Z,11.41
2023-03-15T06:49:10.263Z,11.53
2023-03-15T06:50:18.383Z,12.15
2023-03-15T06:51:21.544Z,13.96
2023-03-15T06:52:24.113Z,15.16
2023-03-15T06:53:26.992Z,15.41
2023-03-15T06:54:31.021Z,15.94
2023-03-15T06:55:34.842Z,16.10
2023-03-15T06:56:43.234Z,15.83
2023-03-15T06:57:46.567Z,15.71
2023-03-15T06:58:50.160Z,16.08
2023-03-15T06:59:55.489Z,17.08
2023-03-15T07:00:59.884Z,17.55
2023-03-15T07:02:03.798Z,18.11
2023-03-15T07:03:07.314Z,19.16
2023-03-15T07:04:10.081Z,20.73
2023-03-15T07:05:17.351Z,20.95
2023-03-15T07:06:22.454Z,21.48
2023-03-15T07:07:28.791Z,21.63
2023-03-15T07:08:32.064Z,21.93
2023-03-15T07:09:36.311Z,22.39
2023-03-15T07:10:40.221Z,22.29
2023-03-15T07:11:43.721Z,23.31
2023-03-15T07:12:47.820Z,23.58
2023-03-15T07:13:52.891Z,24.37
2023-03-15T07:14:56.856Z,24.85
2023-03-15T07:16:00.172Z,24.78
2023-03-15T07:17:04.161Z,24.24
2023-03-15T07:18:10.117Z,24.53
2023-03-15T07:19:18.761Z,24.38
2023-03-15T07:20:21.980Z,24.92
2023-03-15T07:21:26.636Z,24.67
2023-03-15T07:22:30.008Z,24.68
2023-03-15T07:23:33.121Z,24.52
2023-03-15T07:24:36.532Z,24.34
2023-03-15T07:25:54.174Z,24.61
2023-03-15T07:26:43.859Z,24.81
2023-03-15T07:27:47.467Z,24.31
2023-03-15T07:28:50.125Z,24.60
2023-03-15T07:29:55.833Z,24.25
2023-03-15T07:31:01.323Z,24.54
2023-03-15T07:32:04.782Z,24.89
2023-03-15T07:33:08.191Z,25.48
2023-03-15T07:34:10.896Z,25.40
2023-03-15T07:35:14.348Z,25.50
2023-03-15T07:36:20.728Z,25.88
2023-03-15T07:37:24.023Z,25.53
2023-03-15T07:38:31.328Z,25.84
2023-03-15T07:39:34.791Z,25.62
2023-03-15T07:40:38.077Z,25.23
2023-03-15T07:41:41.387Z,26.13
2023-03-15T07:42:46.874Z,26.03
2023-03-15T07:43:50.899Z,26.53
2023-03-15T07:44:55.541Z,25.71
2023-03-15T07:45:59.370Z,25.56
2023-03-15T07:47:02.876Z,25.47
2023-03-15T07:48:06.483Z,25.90
2023-03-15T07:49:12.810Z,25.71
2023-03-15T07:50:17.979Z,25.82
2023-03-15T07:51:23.073Z,25.56
2023-03-15T07:52:25.612Z,24.96
2023-03-15T07:53:29.030Z,25.45
2023-03-15T07:54:33.365Z,25.00
2023-03-15T07:55:36.856Z,24.88
2023-03-15T07:56:41.204Z,25.32
2023-03-15T07:57:44.719Z,25.88
2023-03-15T07:58:47.894Z,26.29
2023-03-15T07:59:53.401Z,26.69
2023-03-15T08:00:56.992Z,25.75
2023-03-15T08:02:03.173Z,26.17
2023-03-15T08:03:06.953Z,26.29
2023-03-15T08:04:10.339Z,26.54
2023-03-15T08:05:15.096Z,26.09
2023-03-15T08:06:19.649Z,26.13
2023-03-15T08:07:22.930Z,26.50
2023-03-15T08:08:27.073Z,26.38
2023-03-15T08:09:30.369Z,26.21
2023-03-15T08:10:34.189Z,26.37
2023-03-15T08:11:38.123Z,26.47
2023-03-15T08:12:44.612Z,26.02
2023-03-15T08:13:47.930Z,25.44
2023-03-15T08:14:50.883Z,24.98
2023-03-15T08:15:54.393Z,25.38
2023-03-15T08:16:57.832Z,25.48
2023-03-15T08:18:05.235Z,25.84
2023-03-15T08:19:09.957Z,25.86
2023-03-15T08:20:14.286Z,26.00
2023-03-15T08:21:19.580Z,24.74
2023-03-15T08:22:25.681Z,24.96
2023-03-15T08:23:28.876Z,24.37
2023-03-15T08:24:34.419Z,25.08
2023-03-15T08:25:38.612Z,24.85
2023-03-15T08:26:44.118Z,24.32
2023-03-15T08:27:47.490Z,23.77
2023-03-15T08:28:50.724Z,23.81
2023-03-15T08:29:53.428Z,24.02
2023-03-15T08:30:56.972Z,24.16
2023-03-15T08:32:01.561Z,23.92
2023-03-15T08:33:04.638Z,23.32
2023-03-15T08:34:07.069Z,22.93
2023-03-15T08:35:10.644Z,22.76
2023-03-15T08:36:13.404Z,22.54
2023-03-15T08:37:16.883Z,22.75
2023-03-15T08:38:20.466Z,22.55
2023-03-15T08:39:26.462Z,22.62
2023-03-15T08:40:30.442Z,22.66
2023-03-15T08:41:33.159Z,22.04
2023-03-15T08:42:37.838Z,21.24
2023-03-15T08:43:41.326Z,20.35
2023-03-15T08:44:45.473Z,20.35
2023-03-15T08:46:00.716Z,20.88
2023-03-15T08:46:57.462Z,20.19
2023-03-15T08:48:03.079Z,19.50
2023-03-15T08:49:08.568Z,19.15
2023-03-15T08:50:14.777Z,18.57
2023-03-15T08:51:18.291Z,18.35
2023-03-15T08:52:22.216Z,18.28
2023-03-15T08:53:26.393Z,17.93
2023-03-15T08:54:30.894Z,17.31
2023-03-15T08:55:35.433Z,16.83
2023-03-15T08:56:39.460Z,16.51
2023-03-15T08:57:43.162Z,16.48
2023-03-15T08:58:47.284Z,16.71
2023-03-15T08:59:51.897Z,17.05
2023-03-15T09:00:56.454Z,16.96
2023-03-15T09:02:02.000Z,16.47
2023-03-15T09:03:07.288Z,16.24
2023-03-15T09:04:11.872Z,15.98
2023-03-15T09:05:15.978Z,16.12
2023-03-15T09:06:20.029Z,16.53
2023-03-15T09:07:24.860Z,16.71
2023-03-15T09:08:27.422Z,16.75
2023-03-15T09:09:30.530Z,16.46
2023-03-15T09:10:34.444Z,15.92
2023-03-15T09:11:38.919Z,15.58
2023-03-15T09:12:42.060Z,15.42
2023-03-15T09:13:45.319Z,15.31
2023-03-15T09:14:48.871Z,15.70
2023-03-15T09:15:54.048Z,15.86
2023-03-15T09:16:57.178Z,16.21
2023-03-15T09:17:59.696Z,16.34
2023-03-15T09:19:02.741Z,16.29
2023-03-15T09:20:09.651Z,16.15
2023-03-15T09:21:12.874Z,15.61
2023-03-15T09:22:17.251Z,15.91
2023-03-15T09:23:24.010Z,16.26
2023-03-15T09:24:27.523Z,15.91
2023-03-15T09:25:31.444Z,15.32
2023-03-15T09:26:36.611Z,15.74
2023-03-15T09:27:39.916Z,15.55
2023-03-15T09:28:43.307Z,15.86
2023-03-15T09:29:47.665Z,15.93
2023-03-15T09:30:51.394Z,16.05
2023-03-15T09:31:55.829Z,16.08
2023-03-15T09:32:58.227Z,15.96
2023-03-15T09:34:01.652Z,16.25
2023-03-15T09:35:06.018Z,16.03
2023-03-15T09:36:10.476Z,16.07
2023-03-15T09:37:14.298Z,16.34
2023-03-15T09:38:17.372Z,16.13
2023-03-15T09:39:22.737Z,15.38
2023-03-15T09:40:30.868Z,15.16
2023-03-15T09:41:35.504Z,14.79
2023-03-15T09:42:49.556Z,14.97
2023-03-15T09:43:57.448Z,15.24
2023-03-15T09:45:22.741Z,15.18
2023-03-15T09:46:28.212Z,15.45
2023-03-15T09:47:37.434Z,15.13
2023-03-15T09:48:57.635Z,15.00
2023-03-15T09:50:05.745Z,14.65
2023-03-15T09:51:27.636Z,15.07
2023-03-15T09:52:37.938Z,14.97
2023-03-15T09:53:43.323Z,15.27
2023-03-15T09:54:57.831Z,15.11
2023-03-15T09:56:00.147Z,14.76
2023-03-15T09:57:09.604Z,14.87
2023-03-15T09:58:16.065Z,15.08
2023-03-15T09:59:21.364Z,15.07
2023-03-15T10:00:37.450Z,14.91
2023-03-15T10:01:43.848Z,15.00
2023-03-15T10:02:56.105Z,14.98
2023-03-15T10:04:02.581Z,14.95
2023-03-15T10:05:10.799Z,15.20
2023-03-15T10:06:36.373Z,15.25
2023-03-15T10:07:40.267Z,14.94
2023-03-15T10:08:52.232Z,14.97
2023-03-15T10:09:59.483Z,14.97
2023-03-15T10:11:13.260Z,14.34
2023-03-15T10:12:18.105Z,14.57
2023-03-15T10:13:27.233Z,14.62
2023-03-15T10:14:49.229Z,14.76
2023-03-15T10:16:03.469Z,14.82
2023-03-15T10:17:12.593Z,14.97
2023-03-15T10:18:29.519Z,15.01
2023-03-15T10:19:34.169Z,15.19
2023-03-15T10:20:39.338Z,15.04
2023-03-15T10:21:47.763Z,15.00
2023-03-15T10:22:58.787Z,15.14
2023-03-15T10:24:05.294Z,15.19
2023-03-15T10:25:17.729Z,14.81
2023-03-15T10:26:25.278Z,14.63
2023-03-15T10:27:32.444Z,15.03
2023-03-15T10:28:37.320Z,14.86
2023-03-15T10:29:41.031Z,14.99
2023-03-15T10:30:49.389Z,14.53
2023-03-15T10:31:55.982Z,14.74
2023-03-15T10:33:00.606Z,14.75
2023-03-15T10:34:04.856Z,14.50
2023-03-15T10:35:15.801Z,14.38
2023-03-15T10:36:19.815Z,14.32
2023-03-15T10:37:24.764Z,14.41
2023-03-15T10:38:27.802Z,14.32
2023-03-15T10:39:31.353Z,14.33
2023-03-15T10:40:48.757Z,14.31
2023-03-15T10:41:51.730Z,14.20
2023-03-15T10:42:59.766Z,14.31
2023-03-15T10:44:09.670Z,14.38
2023-03-15T10:45:15.443Z,14.25
2023-03-15T10:46:23.168Z,14.17
2023-03-15T10:47:27.563Z,14.11
2023-03-15T10:48:36.611Z,14.12
2023-03-15T10:49:42.801Z,14.31
2023-03-15T10:50:45.471Z,14.47
2023-03-15T10:51:49.395Z,14.60
2023-03-15T10:52:54.885Z,13.97
2023-03-15T10:54:17.387Z,13.80
2023-03-15T10:55:22.473Z,13.74
2023-03-15T10:56:30.053Z,13.86
2023-03-15T10:57:35.654Z,13.76
2023-03-15T10:58:45.144Z,13.99
2023-03-15T10:59:55.760Z,14.14
2023-03-15T11:01:03.252Z,14.35
2023-03-15T11:02:13.478Z,14.12
2023-03-15T11:03:20.314Z,14.05
2023-03-15T11:04:28.210Z,14.01
2023-03-15T11:05:39.961Z,13.98
2023-03-15T11:06:50.749Z,14.04
2023-03-15T11:07:55.352Z,13.68
2023-03-15T11:09:01.688Z,13.88
2023-03-15T11:10:07.504Z,13.65
2023-03-15T11:11:11.172Z,13.52
2023-03-15T11:12:19.619Z,13.89
2023-03-15T11:13:23.411Z,13.99
2023-03-15T11:14:37.559Z,14.15
2023-03-15T11:16:45.834Z,14.42
2023-03-15T11:17:49.239Z,14.36
2023-03-15T11:18:53.583Z,14.17
2023-03-15T11:20:00.635Z,13.97
2023-03-15T11:21:08.616Z,14.09
2023-03-15T11:22:13.323Z,14.13
2023-03-15T11:23:19.021Z,14.08
2023-03-15T11:24:28.485Z,14.23
2023-03-15T11:25:33.651Z,14.12
2023-03-15T11:26:38.900Z,14.18
2023-03-15T11:27:43.846Z,14.09
2023-03-15T11:28:48.517Z,13.88
2023-03-15T11:29:54.054Z,13.95
2023-03-15T11:31:01.079Z,13.97
2023-03-15T11:32:07.487Z,14.07
2023-03-15T11:33:14.268Z,14.02
2023-03-15T11:34:35.214Z,14.29
2023-03-15T11:35:44.964Z,14.54
2023-03-15T11:36:58.717Z,14.77
2023-03-15T11:38:14.692Z,14.52
2023-03-15T11:39:08.840Z,14.64
2023-03-15T11:40:16.127Z,14.71
2023-03-15T11:41:29.736Z,14.35
2023-03-15T11:42:35.090Z,14.34
2023-03-15T11:43:43.751Z,13.93
2023-03-15T11:44:51.581Z,14.00
2023-03-15T11:45:56.676Z,13.89
2023-03-15T11:47:05.673Z,13.83
2023-03-15T11:48:10.827Z,13.94
2023-03-15T11:49:15.589Z,13.71
2023-03-15T11:50:18.673Z,13.68
2023-03-15T11:51:22.287Z,13.68
2023-03-15T11:52:27.149Z,13.73
2023-03-15T11:53:33.573Z,13.73
2023-03-15T11:54:37.188Z,13.92
2023-03-15T11:55:42.716Z,14.17
2023-03-15T11:56:58.186Z,14.38
2023-03-15T11:58:02.740Z,14.37
2023-03-15T11:59:08.658Z,14.27
2023-03-15T12:00:29.376Z,14.36
2023-03-15T12:01:35.263Z,14.32
2023-03-15T12:02:40.435Z,14.27
2023-03-15T12:03:44.533Z,14.41
2023-03-15T12:04:48.219Z,14.30
2023-03-15T12:05:52.338Z,14.35
2023-03-15T12:06:58.362Z,14.44
2023-03-15T12:08:03.737Z,14.26
2023-03-15T12:09:25.212Z,14.05
2023-03-15T12:10:33.722Z,14.00
2023-03-15T12:11:39.424Z,13.89
2023-03-15T12:12:44.079Z,13.97
2023-03-15T12:14:00.436Z,14.16
2023-03-15T12:15:16.906Z,13.94
2023-03-15T12:16:22.841Z,13.74
2023-03-15T12:17:27.033Z,13.77
2023-03-15T12:18:36.347Z,13.99
2023-03-15T12:19:41.042Z,14.01
2023-03-15T12:20:52.590Z,13.97
2023-03-15T12:21:59.852Z,13.84
2023-03-15T12:23:14.327Z,13.81
2023-03-15T12:24:24.724Z,13.90
2023-03-15T12:25:37.246Z,13.82
2023-03-15T12:26:47.095Z,13.80
2023-03-15T12:27:52.373Z,13.61
2023-03-15T12:29:04.019Z,13.57
2023-03-15T12:30:09.113Z,13.56
2023-03-15T12:31:16.393Z,13.58
2023-03-15T12:32:21.703Z,13.64
2023-03-15T12:33:28.275Z,13.61
2023-03-15T12:34:40.046Z,13.71
2023-03-15T12:35:43.707Z,13.61
2023-03-15T12:36:48.962Z,13.69
2023-03-15T12:37:54.516Z,13.61
2023-03-15T12:39:05.670Z,13.42
2023-03-15T12:40:20.726Z,13.53
2023-03-15T12:41:37.971Z,13.55
2023-03-15T12:42:42.986Z,13.59
2023-03-15T12:43:47.982Z,13.75
2023-03-15T12:44:51.993Z,13.73
2023-03-15T12:45:56.336Z,13.88
2023-03-15T12:47:02.439Z,14.02
2023-03-15T12:48:13.567Z,13.91
2023-03-15T12:49:19.480Z,13.96
2023-03-15T12:50:44.660Z,14.01
2023-03-15T12:52:00.872Z,13.74
2023-03-15T12:53:06.739Z,13.70
2023-03-15T12:54:14.031Z,13.87
2023-03-15T12:55:19.207Z,13.96
2023-03-15T12:56:32.218Z,13.90
2023-03-15T12:57:40.215Z,13.84
2023-03-15T12:58:47.895Z,13.81
2023-03-15T12:59:59.131Z,13.91
2023-03-15T13:01:04.979Z,13.85
2023-03-15T13:02:10.427Z,13.74
2023-03-15T13:03:18.985Z,13.73
2023-03-15T13:04:21.600Z,13.66
2023-03-15T13:05:27.832Z,13.35
2023-03-15T13:06:33.413Z,13.00
2023-03-15T13:07:50.601Z,13.03
2023-03-15T13:08:46.588Z,13.11
2023-03-15T13:09:53.798Z,13.16
2023-03-15T13:10:59.249Z,12.88
2023-03-15T13:12:05.176Z,12.82
2023-03-15T13:13:11.714Z,12.96
2023-03-15T13:14:16.869Z,12.91
2023-03-15T13:15:21.729Z,12.70
2023-03-15T13:16:45.197Z,12.61
2023-03-15T13:17:52.033Z,12.38
2023-03-15T13:19:04.092Z,12.39
2023-03-15T13:20:15.116Z,12.36
2023-03-15T13:21:38.539Z,12.38
2023-03-15T13:22:55.561Z,12.33
2023-03-15T13:23:56.207Z,12.41
2023-03-15T13:25:01.421Z,12.35
2023-03-15T13:26:16.530Z,12.30
2023-03-15T13:27:34.125Z,12.12
2023-03-15T13:28:42.803Z,11.95
2023-03-15T13:29:46.567Z,12.09
2023-03-15T13:30:54.595Z,12.04
2023-03-15T13:32:18.108Z,11.95
2023-03-15T13:33:33.558Z,11.85
2023-03-15T13:34:36.037Z,11.67
2023-03-15T13:35:43.917Z,11.63
2023-03-15T13:36:48.677Z,11.64
2023-03-15T13:37:54.767Z,11.62
2023-03-15T13:38:58.584Z,11.57
2023-03-15T13:40:03.553Z,11.70
2023-03-15T13:41:22.941Z,11.68
2023-03-15T13:42:26.441Z,11.68
2023-03-15T13:43:31.389Z,11.50
2023-03-15T13:44:36.376Z,11.47
2023-03-15T13:45:41.430Z,11.42
2023-03-15T13:46:44.736Z,11.53
2023-03-15T13:47:47.511Z,11.56
2023-03-15T13:48:51.225Z,11.59
2023-03-15T13:49:56.141Z,11.56
2023-03-15T13:51:02.511Z,11.66
2023-03-15T13:52:07.904Z,11.63
2023-03-15T13:53:13.920Z,11.50
2023-03-15T13:54:27.134Z,11.45
2023-03-15T13:55:32.298Z,11.40
2023-03-15T13:56:49.197Z,11.50
2023-03-15T13:57:44.334Z,11.49
2023-03-15T13:58:50.342Z,11.54
2023-03-15T14:00:05.547Z,11.66
2023-03-15T14:01:09.267Z,11.58
2023-03-15T14:02:15.170Z,11.44
2023-03-15T14:03:20.440Z,11.31
2023-03-15T14:04:25.844Z,11.24
2023-03-15T14:05:30.270Z,11.17
2023-03-15T14:06:33.575Z,11.22
2023-03-15T14:07:41.261Z,11.19
2023-03-15T14:08:45.618Z,11.09
2023-03-15T14:09:51.128Z,11.09
2023-03-15T14:11:02.434Z,11.23
2023-03-15T14:12:08.230Z,11.16
2023-03-15T14:13:18.317Z,11.04
2023-03-15T14:14:27.574Z,11.00
2023-03-15T14:15:33.685Z,10.92
2023-03-15T14:16:57.326Z,10.72
2023-03-15T14:17:53.958Z,10.74
2023-03-15T14:18:59.240Z,10.80
2023-03-15T14:20:08.543Z,10.87
2023-03-15T14:21:20.720Z,10.91
2023-03-15T14:22:24.278Z,10.80
2023-03-15T14:23:29.663Z,10.91
2023-03-15T14:24:38.107Z,10.88
2023-03-15T14:25:41.588Z,10.83
2023-03-15T14:26:47.255Z,10.91
2023-03-15T14:27:58.825Z,10.94
2023-03-15T14:29:09.203Z,10.74
2023-03-15T14:30:20.443Z,10.72
2023-03-15T14:31:25.167Z,10.75
2023-03-15T14:32:35.421Z,10.71
2023-03-15T14:33:42.818Z,10.69
2023-03-15T14:34:47.325Z,10.73
2023-03-15T14:35:52.566Z,10.69
2023-03-15T14:36:56.841Z,10.92
2023-03-15T14:38:07.031Z,10.93
2023-03-15T14:39:18.774Z,10.75
2023-03-15T14:40:23.859Z,10.68
2023-03-15T14:41:32.469Z,10.75
2023-03-15T14:42:35.880Z,10.63
2023-03-15T14:43:38.132Z,10.69
2023-03-15T14:44:40.693Z,10.70
2023-03-15T14:45:45.811Z,10.74
2023-03-15T14:46:49.482Z,10.73
2023-03-15T14:47:57.906Z,10.72
2023-03-15T14:49:03.076Z,10.68
2023-03-15T14:50:08.692Z,10.79
2023-03-15T14:51:19.595Z,10.90
2023-03-15T14:52:24.753Z,10.81
2023-03-15T14:53:32.018Z,10.82
2023-03-15T14:54:35.212Z,10.89
2023-03-15T14:55:38.512Z,10.93
2023-03-15T14:56:43.337Z,10.97
2023-03-15T14:57:47.661Z,10.81
2023-03-15T14:58:56.543Z,10.82
2023-03-15T14:59:59.712Z,10.91